sensor_id;sensor_type;location;lat;lon;timestamp;P1;durP1;ratioP1;P2;durP2;ratioP2
73980;SDS011;62348;51.412;5.436;2024-01-30T00:01:19;4.18;;;2.85;;
73980;SDS011;62348;51.412;5.436;2024-01-30T00:03:45;5.32;;;3.05;;
73980;SDS011;62348;51.412;5.436;2024-01-30T00:06:11;2.92;;;2.65;;
73980;SDS011;62348;51.412;5.436;2024-01-30T00:08:37;4.68;;;3.13;;
73980;SDS011;62348;51.412;5.436;2024-01-30T00:11:02;2.75;;;2.42;;
73980;SDS011;62348;51.412;5.436;2024-01-30T00:13:28;4.20;;;3.35;;
73980;SDS011;62348;51.412;5.436;2024-01-30T00:15:53;3.15;;;2.88;;
73980;SDS011;62348;51.412;5.436;2024-01-30T00:18:19;5.00;;;2.63;;
73980;SDS011;62348;51.412;5.436;2024-01-30T00:20:44;3.13;;;2.50;;
73980;SDS011;62348;51.412;5.436;2024-01-30T00:23:10;3.85;;;2.47;;
73980;SDS011;62348;51.412;5.436;2024-01-30T00:25:35;3.20;;;2.25;;
73980;SDS011;62348;51.412;5.436;2024-01-30T00:28:00;3.50;;;2.42;;
73980;SDS011;62348;51.412;5.436;2024-01-30T00:30:26;4.07;;;2.42;;
73980;SDS011;62348;51.412;5.436;2024-01-30T00:32:51;4.68;;;3.17;;
73980;SDS011;62348;51.412;5.436;2024-01-30T00:35:17;4.93;;;2.63;;
73980;SDS011;62348;51.412;5.436;2024-01-30T00:37:42;5.72;;;3.10;;
73980;SDS011;62348;51.412;5.436;2024-01-30T00:40:08;4.65;;;3.13;;
73980;SDS011;62348;51.412;5.436;2024-01-30T00:42:35;4.32;;;2.63;;
73980;SDS011;62348;51.412;5.436;2024-01-30T00:45:00;3.95;;;2.95;;
73980;SDS011;62348;51.412;5.436;2024-01-30T00:47:26;5.85;;;2.03;;
73980;SDS011;62348;51.412;5.436;2024-01-30T00:49:51;3.67;;;2.50;;
73980;SDS011;62348;51.412;5.436;2024-01-30T00:52:17;3.80;;;2.20;;
73980;SDS011;62348;51.412;5.436;2024-01-30T00:54:42;8.07;;;2.95;;
73980;SDS011;62348;51.412;5.436;2024-01-30T00:57:08;7.47;;;2.58;;
73980;SDS011;62348;51.412;5.436;2024-01-30T00:59:33;4.78;;;2.60;;
73980;SDS011;62348;51.412;5.436;2024-01-30T01:01:59;7.97;;;3.90;;
73980;SDS011;62348;51.412;5.436;2024-01-30T01:04:24;4.68;;;2.97;;
73980;SDS011;62348;51.412;5.436;2024-01-30T01:06:51;3.03;;;2.63;;
73980;SDS011;62348;51.412;5.436;2024-01-30T01:09:17;3.35;;;2.10;;
73980;SDS011;62348;51.412;5.436;2024-01-30T01:11:42;3.92;;;2.72;;
73980;SDS011;62348;51.412;5.436;2024-01-30T01:14:07;3.35;;;2.38;;
73980;SDS011;62348;51.412;5.436;2024-01-30T01:16:33;6.13;;;3.00;;
73980;SDS011;62348;51.412;5.436;2024-01-30T01:18:59;3.22;;;2.38;;
73980;SDS011;62348;51.412;5.436;2024-01-30T01:21:25;9.18;;;3.35;;
73980;SDS011;62348;51.412;5.436;2024-01-30T01:23:51;4.53;;;2.88;;
73980;SDS011;62348;51.412;5.436;2024-01-30T01:26:16;3.15;;;2.40;;
73980;SDS011;62348;51.412;5.436;2024-01-30T01:28:41;5.63;;;3.60;;
73980;SDS011;62348;51.412;5.436;2024-01-30T01:31:07;4.93;;;2.55;;
73980;SDS011;62348;51.412;5.436;2024-01-30T01:33:33;5.00;;;3.17;;
73980;SDS011;62348;51.412;5.436;2024-01-30T01:35:59;4.40;;;2.25;;
73980;SDS011;62348;51.412;5.436;2024-01-30T01:38:27;2.55;;;2.35;;
73980;SDS011;62348;51.412;5.436;2024-01-30T01:40:52;2.70;;;2.50;;
73980;SDS011;62348;51.412;5.436;2024-01-30T01:43:18;3.17;;;2.13;;
73980;SDS011;62348;51.412;5.436;2024-01-30T01:45:43;3.92;;;2.95;;
73980;SDS011;62348;51.412;5.436;2024-01-30T01:48:09;2.45;;;2.25;;
73980;SDS011;62348;51.412;5.436;2024-01-30T01:50:35;3.80;;;2.30;;
73980;SDS011;62348;51.412;5.436;2024-01-30T01:53:01;4.25;;;2.80;;
73980;SDS011;62348;51.412;5.436;2024-01-30T01:55:28;2.33;;;2.13;;
73980;SDS011;62348;51.412;5.436;2024-01-30T01:57:54;3.63;;;2.35;;
73980;SDS011;62348;51.412;5.436;2024-01-30T02:00:20;3.47;;;3.15;;
73980;SDS011;62348;51.412;5.436;2024-01-30T02:02:46;3.50;;;2.33;;
73980;SDS011;62348;51.412;5.436;2024-01-30T02:05:12;4.10;;;2.72;;
73980;SDS011;62348;51.412;5.436;2024-01-30T02:07:37;6.38;;;3.15;;
73980;SDS011;62348;51.412;5.436;2024-01-30T02:10:03;4.53;;;3.20;;
73980;SDS011;62348;51.412;5.436;2024-01-30T02:12:29;4.05;;;2.60;;
73980;SDS011;62348;51.412;5.436;2024-01-30T02:14:55;2.85;;;2.13;;
73980;SDS011;62348;51.412;5.436;2024-01-30T02:17:20;4.95;;;2.78;;
73980;SDS011;62348;51.412;5.436;2024-01-30T02:19:46;4.05;;;2.83;;
73980;SDS011;62348;51.412;5.436;2024-01-30T02:22:11;5.28;;;2.85;;
73980;SDS011;62348;51.412;5.436;2024-01-30T02:24:38;3.78;;;2.92;;
73980;SDS011;62348;51.412;5.436;2024-01-30T02:27:03;7.93;;;3.35;;
73980;SDS011;62348;51.412;5.436;2024-01-30T02:29:29;5.68;;;3.72;;
73980;SDS011;62348;51.412;5.436;2024-01-30T02:31:54;2.85;;;2.35;;
73980;SDS011;62348;51.412;5.436;2024-01-30T02:34:20;2.80;;;2.45;;
73980;SDS011;62348;51.412;5.436;2024-01-30T02:36:46;5.53;;;3.78;;
73980;SDS011;62348;51.412;5.436;2024-01-30T02:39:11;7.47;;;3.05;;
73980;SDS011;62348;51.412;5.436;2024-01-30T02:41:36;5.50;;;3.35;;
73980;SDS011;62348;51.412;5.436;2024-01-30T02:44:02;4.20;;;2.00;;
73980;SDS011;62348;51.412;5.436;2024-01-30T02:46:28;4.60;;;3.30;;
73980;SDS011;62348;51.412;5.436;2024-01-30T02:48:54;3.92;;;3.13;;
73980;SDS011;62348;51.412;5.436;2024-01-30T02:51:19;4.45;;;2.63;;
73980;SDS011;62348;51.412;5.436;2024-01-30T02:53:45;3.17;;;2.60;;
73980;SDS011;62348;51.412;5.436;2024-01-30T02:56:10;5.20;;;3.03;;
73980;SDS011;62348;51.412;5.436;2024-01-30T02:58:38;3.67;;;2.70;;
73980;SDS011;62348;51.412;5.436;2024-01-30T03:01:04;4.15;;;3.50;;
73980;SDS011;62348;51.412;5.436;2024-01-30T03:03:30;3.50;;;2.65;;
73980;SDS011;62348;51.412;5.436;2024-01-30T03:05:56;3.03;;;2.33;;
73980;SDS011;62348;51.412;5.436;2024-01-30T03:08:21;3.75;;;2.97;;
73980;SDS011;62348;51.412;5.436;2024-01-30T03:10:47;2.92;;;1.92;;
73980;SDS011;62348;51.412;5.436;2024-01-30T03:13:12;4.28;;;3.50;;
73980;SDS011;62348;51.412;5.436;2024-01-30T03:15:38;3.58;;;2.33;;
73980;SDS011;62348;51.412;5.436;2024-01-30T03:18:03;4.05;;;2.92;;
73980;SDS011;62348;51.412;5.436;2024-01-30T03:20:29;2.85;;;1.95;;
73980;SDS011;62348;51.412;5.436;2024-01-30T03:22:55;3.80;;;2.72;;
73980;SDS011;62348;51.412;5.436;2024-01-30T03:25:21;5.57;;;2.60;;
73980;SDS011;62348;51.412;5.436;2024-01-30T03:27:46;3.45;;;3.00;;
73980;SDS011;62348;51.412;5.436;2024-01-30T03:30:12;2.00;;;1.80;;
73980;SDS011;62348;51.412;5.436;2024-01-30T03:32:37;3.58;;;2.72;;
73980;SDS011;62348;51.412;5.436;2024-01-30T03:35:03;4.10;;;2.25;;
73980;SDS011;62348;51.412;5.436;2024-01-30T03:37:29;2.78;;;2.28;;
73980;SDS011;62348;51.412;5.436;2024-01-30T03:39:54;3.05;;;2.22;;
73980;SDS011;62348;51.412;5.436;2024-01-30T03:42:19;4.60;;;2.75;;
73980;SDS011;62348;51.412;5.436;2024-01-30T03:44:45;12.25;;;3.00;;
73980;SDS011;62348;51.412;5.436;2024-01-30T03:47:10;4.18;;;2.70;;
73980;SDS011;62348;51.412;5.436;2024-01-30T03:49:36;5.95;;;2.50;;
73980;SDS011;62348;51.412;5.436;2024-01-30T03:52:01;3.33;;;2.00;;
73980;SDS011;62348;51.412;5.436;2024-01-30T03:54:27;5.30;;;2.72;;
73980;SDS011;62348;51.412;5.436;2024-01-30T03:56:52;3.15;;;2.90;;
73980;SDS011;62348;51.412;5.436;2024-01-30T03:59:17;4.95;;;2.75;;
73980;SDS011;62348;51.412;5.436;2024-01-30T04:01:47;3.17;;;2.90;;
73980;SDS011;62348;51.412;5.436;2024-01-30T04:04:13;3.65;;;2.90;;
73980;SDS011;62348;51.412;5.436;2024-01-30T04:06:38;3.47;;;2.13;;
73980;SDS011;62348;51.412;5.436;2024-01-30T04:09:04;4.05;;;2.08;;
73980;SDS011;62348;51.412;5.436;2024-01-30T04:11:29;2.70;;;2.13;;
73980;SDS011;62348;51.412;5.436;2024-01-30T04:13:54;2.45;;;2.05;;
73980;SDS011;62348;51.412;5.436;2024-01-30T04:16:20;3.33;;;2.15;;
73980;SDS011;62348;51.412;5.436;2024-01-30T04:18:47;5.70;;;3.13;;
73980;SDS011;62348;51.412;5.436;2024-01-30T04:21:12;3.22;;;2.13;;
73980;SDS011;62348;51.412;5.436;2024-01-30T04:23:37;5.45;;;2.75;;
73980;SDS011;62348;51.412;5.436;2024-01-30T04:26:04;2.33;;;2.13;;
73980;SDS011;62348;51.412;5.436;2024-01-30T04:28:29;3.40;;;2.60;;
73980;SDS011;62348;51.412;5.436;2024-01-30T04:30:55;3.45;;;2.88;;
73980;SDS011;62348;51.412;5.436;2024-01-30T04:33:20;4.97;;;3.72;;
73980;SDS011;62348;51.412;5.436;2024-01-30T04:35:45;2.58;;;2.13;;
73980;SDS011;62348;51.412;5.436;2024-01-30T04:38:11;3.75;;;1.67;;
73980;SDS011;62348;51.412;5.436;2024-01-30T04:40:36;4.25;;;2.25;;
73980;SDS011;62348;51.412;5.436;2024-01-30T04:43:02;4.20;;;2.75;;
73980;SDS011;62348;51.412;5.436;2024-01-30T04:45:27;3.30;;;2.17;;
73980;SDS011;62348;51.412;5.436;2024-01-30T04:47:52;3.88;;;2.53;;
73980;SDS011;62348;51.412;5.436;2024-01-30T04:50:18;2.38;;;1.98;;
73980;SDS011;62348;51.412;5.436;2024-01-30T04:52:44;3.83;;;2.22;;
73980;SDS011;62348;51.412;5.436;2024-01-30T04:55:09;1.88;;;1.60;;
73980;SDS011;62348;51.412;5.436;2024-01-30T04:57:34;2.28;;;1.60;;
73980;SDS011;62348;51.412;5.436;2024-01-30T05:00:00;2.90;;;1.92;;
73980;SDS011;62348;51.412;5.436;2024-01-30T05:02:25;3.85;;;2.08;;
73980;SDS011;62348;51.412;5.436;2024-01-30T05:04:51;3.15;;;2.35;;
73980;SDS011;62348;51.412;5.436;2024-01-30T05:07:16;3.28;;;2.17;;
73980;SDS011;62348;51.412;5.436;2024-01-30T05:09:42;4.55;;;2.22;;
73980;SDS011;62348;51.412;5.436;2024-01-30T05:12:09;2.78;;;1.70;;
73980;SDS011;62348;51.412;5.436;2024-01-30T05:14:35;2.30;;;2.15;;
73980;SDS011;62348;51.412;5.436;2024-01-30T05:17:00;4.05;;;2.78;;
73980;SDS011;62348;51.412;5.436;2024-01-30T05:19:28;2.28;;;2.05;;
73980;SDS011;62348;51.412;5.436;2024-01-30T05:21:53;3.80;;;2.20;;
73980;SDS011;62348;51.412;5.436;2024-01-30T05:24:18;4.13;;;2.33;;
73980;SDS011;62348;51.412;5.436;2024-01-30T05:26:44;2.20;;;1.70;;
73980;SDS011;62348;51.412;5.436;2024-01-30T05:29:09;4.30;;;2.65;;
73980;SDS011;62348;51.412;5.436;2024-01-30T05:31:35;3.20;;;2.45;;
73980;SDS011;62348;51.412;5.436;2024-01-30T05:34:00;4.15;;;2.53;;
73980;SDS011;62348;51.412;5.436;2024-01-30T05:36:26;4.65;;;2.80;;
73980;SDS011;62348;51.412;5.436;2024-01-30T05:38:51;3.08;;;2.58;;
73980;SDS011;62348;51.412;5.436;2024-01-30T05:41:17;3.75;;;2.50;;
73980;SDS011;62348;51.412;5.436;2024-01-30T05:43:42;4.18;;;1.73;;
73980;SDS011;62348;51.412;5.436;2024-01-30T05:46:07;3.20;;;2.05;;
73980;SDS011;62348;51.412;5.436;2024-01-30T05:48:33;4.68;;;2.90;;
73980;SDS011;62348;51.412;5.436;2024-01-30T05:51:00;7.50;;;2.45;;
73980;SDS011;62348;51.412;5.436;2024-01-30T05:53:26;5.63;;;2.55;;
73980;SDS011;62348;51.412;5.436;2024-01-30T05:55:51;3.15;;;2.03;;
73980;SDS011;62348;51.412;5.436;2024-01-30T05:58:16;3.70;;;1.92;;
73980;SDS011;62348;51.412;5.436;2024-01-30T06:00:42;2.70;;;2.00;;
73980;SDS011;62348;51.412;5.436;2024-01-30T06:03:07;2.72;;;1.98;;
73980;SDS011;62348;51.412;5.436;2024-01-30T06:05:33;3.05;;;1.98;;
73980;SDS011;62348;51.412;5.436;2024-01-30T06:07:58;3.22;;;2.13;;
73980;SDS011;62348;51.412;5.436;2024-01-30T06:10:23;1.83;;;1.67;;
73980;SDS011;62348;51.412;5.436;2024-01-30T06:12:49;7.20;;;2.90;;
73980;SDS011;62348;51.412;5.436;2024-01-30T06:15:14;2.03;;;1.77;;
73980;SDS011;62348;51.412;5.436;2024-01-30T06:17:40;2.33;;;2.15;;
73980;SDS011;62348;51.412;5.436;2024-01-30T06:20:05;2.55;;;1.80;;
73980;SDS011;62348;51.412;5.436;2024-01-30T06:22:31;7.55;;;1.98;;
73980;SDS011;62348;51.412;5.436;2024-01-30T06:24:57;6.22;;;2.40;;
73980;SDS011;62348;51.412;5.436;2024-01-30T06:27:22;3.05;;;2.50;;
73980;SDS011;62348;51.412;5.436;2024-01-30T06:29:47;3.38;;;2.33;;
73980;SDS011;62348;51.412;5.436;2024-01-30T06:32:13;2.88;;;2.30;;
73980;SDS011;62348;51.412;5.436;2024-01-30T06:34:38;2.28;;;2.03;;
73980;SDS011;62348;51.412;5.436;2024-01-30T06:37:05;6.22;;;2.35;;
73980;SDS011;62348;51.412;5.436;2024-01-30T06:39:30;2.42;;;2.28;;
73980;SDS011;62348;51.412;5.436;2024-01-30T06:41:56;1.70;;;1.58;;
73980;SDS011;62348;51.412;5.436;2024-01-30T06:44:21;3.53;;;2.28;;
73980;SDS011;62348;51.412;5.436;2024-01-30T06:46:47;1.73;;;1.55;;
73980;SDS011;62348;51.412;5.436;2024-01-30T06:49:12;7.20;;;2.70;;
73980;SDS011;62348;51.412;5.436;2024-01-30T06:51:38;3.20;;;1.75;;
73980;SDS011;62348;51.412;5.436;2024-01-30T06:54:03;2.40;;;2.13;;
73980;SDS011;62348;51.412;5.436;2024-01-30T06:56:29;2.47;;;1.92;;
73980;SDS011;62348;51.412;5.436;2024-01-30T06:58:54;3.25;;;2.67;;
73980;SDS011;62348;51.412;5.436;2024-01-30T07:01:20;3.92;;;1.73;;
73980;SDS011;62348;51.412;5.436;2024-01-30T07:03:46;2.85;;;2.35;;
73980;SDS011;62348;51.412;5.436;2024-01-30T07:06:11;3.00;;;1.95;;
73980;SDS011;62348;51.412;5.436;2024-01-30T07:08:37;2.78;;;2.03;;
73980;SDS011;62348;51.412;5.436;2024-01-30T07:11:04;3.08;;;2.38;;
73980;SDS011;62348;51.412;5.436;2024-01-30T07:13:30;3.85;;;2.25;;
73980;SDS011;62348;51.412;5.436;2024-01-30T07:15:56;2.97;;;2.42;;
73980;SDS011;62348;51.412;5.436;2024-01-30T07:18:21;4.38;;;2.88;;
73980;SDS011;62348;51.412;5.436;2024-01-30T07:20:46;4.13;;;2.55;;
73980;SDS011;62348;51.412;5.436;2024-01-30T07:23:13;2.88;;;2.15;;
73980;SDS011;62348;51.412;5.436;2024-01-30T07:25:41;2.13;;;1.55;;
73980;SDS011;62348;51.412;5.436;2024-01-30T07:28:07;3.15;;;1.83;;
73980;SDS011;62348;51.412;5.436;2024-01-30T07:30:34;3.97;;;2.20;;
73980;SDS011;62348;51.412;5.436;2024-01-30T07:33:00;2.30;;;1.77;;
73980;SDS011;62348;51.412;5.436;2024-01-30T07:35:26;3.47;;;1.98;;
73980;SDS011;62348;51.412;5.436;2024-01-30T07:37:51;2.60;;;2.13;;
73980;SDS011;62348;51.412;5.436;2024-01-30T07:40:17;4.13;;;2.05;;
73980;SDS011;62348;51.412;5.436;2024-01-30T07:42:42;3.33;;;2.65;;
73980;SDS011;62348;51.412;5.436;2024-01-30T07:45:08;5.07;;;3.15;;
73980;SDS011;62348;51.412;5.436;2024-01-30T07:47:34;2.63;;;2.42;;
73980;SDS011;62348;51.412;5.436;2024-01-30T07:49:59;3.97;;;2.35;;
73980;SDS011;62348;51.412;5.436;2024-01-30T07:52:25;5.40;;;2.28;;
73980;SDS011;62348;51.412;5.436;2024-01-30T07:54:50;3.88;;;2.78;;
73980;SDS011;62348;51.412;5.436;2024-01-30T07:57:16;3.38;;;2.33;;
73980;SDS011;62348;51.412;5.436;2024-01-30T07:59:45;6.57;;;2.40;;
73980;SDS011;62348;51.412;5.436;2024-01-30T08:02:13;2.50;;;2.13;;
73980;SDS011;62348;51.412;5.436;2024-01-30T08:04:39;4.45;;;2.58;;
73980;SDS011;62348;51.412;5.436;2024-01-30T08:07:05;16.58;;;2.33;;
73980;SDS011;62348;51.412;5.436;2024-01-30T08:09:30;6.47;;;3.03;;
73980;SDS011;62348;51.412;5.436;2024-01-30T08:11:55;3.10;;;1.95;;
73980;SDS011;62348;51.412;5.436;2024-01-30T08:14:21;2.42;;;1.92;;
73980;SDS011;62348;51.412;5.436;2024-01-30T08:16:47;3.70;;;2.90;;
73980;SDS011;62348;51.412;5.436;2024-01-30T08:19:12;4.75;;;2.40;;
73980;SDS011;62348;51.412;5.436;2024-01-30T08:21:38;2.72;;;2.38;;
73980;SDS011;62348;51.412;5.436;2024-01-30T08:24:04;3.80;;;2.17;;
73980;SDS011;62348;51.412;5.436;2024-01-30T08:26:30;3.60;;;2.67;;
73980;SDS011;62348;51.412;5.436;2024-01-30T08:28:56;5.15;;;3.42;;
73980;SDS011;62348;51.412;5.436;2024-01-30T08:31:22;3.50;;;2.88;;
73980;SDS011;62348;51.412;5.436;2024-01-30T08:33:47;2.88;;;2.10;;
73980;SDS011;62348;51.412;5.436;2024-01-30T08:36:13;6.40;;;3.53;;
73980;SDS011;62348;51.412;5.436;2024-01-30T08:38:38;3.13;;;2.53;;
73980;SDS011;62348;51.412;5.436;2024-01-30T08:41:03;4.05;;;2.88;;
73980;SDS011;62348;51.412;5.436;2024-01-30T08:43:30;5.72;;;3.15;;
73980;SDS011;62348;51.412;5.436;2024-01-30T08:45:55;4.15;;;2.22;;
73980;SDS011;62348;51.412;5.436;2024-01-30T08:48:24;3.30;;;2.47;;
73980;SDS011;62348;51.412;5.436;2024-01-30T08:50:50;2.50;;;2.30;;
73980;SDS011;62348;51.412;5.436;2024-01-30T08:53:15;4.85;;;2.92;;
73980;SDS011;62348;51.412;5.436;2024-01-30T08:55:41;2.55;;;2.20;;
73980;SDS011;62348;51.412;5.436;2024-01-30T08:58:06;6.68;;;2.92;;
73980;SDS011;62348;51.412;5.436;2024-01-30T09:00:32;3.85;;;2.63;;
73980;SDS011;62348;51.412;5.436;2024-01-30T09:02:58;3.75;;;3.08;;
73980;SDS011;62348;51.412;5.436;2024-01-30T09:05:23;3.05;;;2.45;;
73980;SDS011;62348;51.412;5.436;2024-01-30T09:07:49;10.30;;;3.08;;
73980;SDS011;62348;51.412;5.436;2024-01-30T09:10:14;6.22;;;3.10;;
73980;SDS011;62348;51.412;5.436;2024-01-30T09:12:40;4.13;;;2.40;;
73980;SDS011;62348;51.412;5.436;2024-01-30T09:15:06;5.95;;;3.22;;
73980;SDS011;62348;51.412;5.436;2024-01-30T09:17:32;5.05;;;2.92;;
73980;SDS011;62348;51.412;5.436;2024-01-30T09:19:58;5.03;;;2.63;;
73980;SDS011;62348;51.412;5.436;2024-01-30T09:22:23;6.25;;;2.70;;
73980;SDS011;62348;51.412;5.436;2024-01-30T09:24:49;3.92;;;2.83;;
73980;SDS011;62348;51.412;5.436;2024-01-30T09:27:15;2.63;;;2.28;;
73980;SDS011;62348;51.412;5.436;2024-01-30T09:29:40;3.45;;;2.58;;
73980;SDS011;62348;51.412;5.436;2024-01-30T09:32:06;4.97;;;2.53;;
73980;SDS011;62348;51.412;5.436;2024-01-30T09:34:32;8.57;;;2.83;;
73980;SDS011;62348;51.412;5.436;2024-01-30T09:36:58;3.90;;;2.80;;
73980;SDS011;62348;51.412;5.436;2024-01-30T09:39:24;4.43;;;2.30;;
73980;SDS011;62348;51.412;5.436;2024-01-30T09:41:54;7.03;;;2.58;;
73980;SDS011;62348;51.412;5.436;2024-01-30T09:44:44;7.22;;;3.95;;
73980;SDS011;62348;51.412;5.436;2024-01-30T09:47:12;2.90;;;2.70;;
73980;SDS011;62348;51.412;5.436;2024-01-30T09:49:38;3.10;;;2.80;;
73980;SDS011;62348;51.412;5.436;2024-01-30T09:52:05;4.03;;;2.40;;
73980;SDS011;62348;51.412;5.436;2024-01-30T09:54:31;3.72;;;3.00;;
73980;SDS011;62348;51.412;5.436;2024-01-30T09:56:58;4.15;;;2.83;;
73980;SDS011;62348;51.412;5.436;2024-01-30T09:59:23;4.68;;;2.30;;
73980;SDS011;62348;51.412;5.436;2024-01-30T10:01:51;4.38;;;2.47;;
73980;SDS011;62348;51.412;5.436;2024-01-30T10:04:17;4.82;;;3.40;;
73980;SDS011;62348;51.412;5.436;2024-01-30T10:06:42;3.78;;;2.50;;
73980;SDS011;62348;51.412;5.436;2024-01-30T10:09:08;16.02;;;3.38;;
73980;SDS011;62348;51.412;5.436;2024-01-30T10:11:34;3.75;;;2.38;;
73980;SDS011;62348;51.412;5.436;2024-01-30T10:14:01;4.15;;;2.88;;
73980;SDS011;62348;51.412;5.436;2024-01-30T10:16:26;3.80;;;2.65;;
73980;SDS011;62348;51.412;5.436;2024-01-30T10:18:51;3.28;;;2.35;;
73980;SDS011;62348;51.412;5.436;2024-01-30T10:21:17;6.65;;;4.13;;
73980;SDS011;62348;51.412;5.436;2024-01-30T10:23:43;3.50;;;2.47;;
73980;SDS011;62348;51.412;5.436;2024-01-30T10:26:12;4.03;;;2.65;;
73980;SDS011;62348;51.412;5.436;2024-01-30T10:28:37;8.07;;;2.75;;
73980;SDS011;62348;51.412;5.436;2024-01-30T10:31:03;4.35;;;3.25;;
73980;SDS011;62348;51.412;5.436;2024-01-30T10:33:29;4.63;;;2.92;;
73980;SDS011;62348;51.412;5.436;2024-01-30T10:36:02;4.18;;;3.55;;
73980;SDS011;62348;51.412;5.436;2024-01-30T10:38:29;5.03;;;2.90;;
73980;SDS011;62348;51.412;5.436;2024-01-30T10:41:01;14.45;;;4.13;;
73980;SDS011;62348;51.412;5.436;2024-01-30T10:43:30;6.35;;;4.20;;
73980;SDS011;62348;51.412;5.436;2024-01-30T10:46:01;5.00;;;3.13;;
73980;SDS011;62348;51.412;5.436;2024-01-30T10:48:36;3.88;;;2.63;;
73980;SDS011;62348;51.412;5.436;2024-01-30T10:51:07;5.95;;;2.60;;
73980;SDS011;62348;51.412;5.436;2024-01-30T10:53:34;5.35;;;3.33;;
73980;SDS011;62348;51.412;5.436;2024-01-30T10:56:01;4.78;;;3.17;;
73980;SDS011;62348;51.412;5.436;2024-01-30T10:58:27;6.40;;;3.28;;
73980;SDS011;62348;51.412;5.436;2024-01-30T11:00:53;3.55;;;2.63;;
73980;SDS011;62348;51.412;5.436;2024-01-30T11:03:19;4.68;;;3.40;;
73980;SDS011;62348;51.412;5.436;2024-01-30T11:05:49;5.05;;;2.80;;
73980;SDS011;62348;51.412;5.436;2024-01-30T11:08:22;7.40;;;3.53;;
73980;SDS011;62348;51.412;5.436;2024-01-30T11:10:49;4.25;;;3.33;;
73980;SDS011;62348;51.412;5.436;2024-01-30T11:13:15;6.05;;;3.45;;
73980;SDS011;62348;51.412;5.436;2024-01-30T11:15:40;10.57;;;3.50;;
73980;SDS011;62348;51.412;5.436;2024-01-30T11:18:06;8.05;;;2.80;;
73980;SDS011;62348;51.412;5.436;2024-01-30T11:20:31;6.13;;;3.20;;
73980;SDS011;62348;51.412;5.436;2024-01-30T11:22:58;5.15;;;3.05;;
73980;SDS011;62348;51.412;5.436;2024-01-30T11:25:24;5.90;;;2.72;;
73980;SDS011;62348;51.412;5.436;2024-01-30T11:27:54;4.38;;;3.15;;
73980;SDS011;62348;51.412;5.436;2024-01-30T11:30:30;4.25;;;2.63;;
73980;SDS011;62348;51.412;5.436;2024-01-30T11:35:25;8.07;;;3.03;;
73980;SDS011;62348;51.412;5.436;2024-01-30T11:37:50;5.85;;;3.28;;
73980;SDS011;62348;51.412;5.436;2024-01-30T11:40:16;6.68;;;3.80;;
73980;SDS011;62348;51.412;5.436;2024-01-30T11:42:42;6.07;;;3.40;;
73980;SDS011;62348;51.412;5.436;2024-01-30T11:45:08;5.13;;;3.10;;
73980;SDS011;62348;51.412;5.436;2024-01-30T11:47:37;2.92;;;2.38;;
73980;SDS011;62348;51.412;5.436;2024-01-30T11:50:04;6.40;;;2.35;;
73980;SDS011;62348;51.412;5.436;2024-01-30T11:52:31;2.92;;;2.50;;
73980;SDS011;62348;51.412;5.436;2024-01-30T11:54:58;3.72;;;2.65;;
73980;SDS011;62348;51.412;5.436;2024-01-30T11:57:26;4.75;;;3.05;;
73980;SDS011;62348;51.412;5.436;2024-01-30T11:59:52;3.15;;;2.35;;
73980;SDS011;62348;51.412;5.436;2024-01-30T12:02:17;4.28;;;2.47;;
73980;SDS011;62348;51.412;5.436;2024-01-30T12:04:42;6.75;;;2.78;;
73980;SDS011;62348;51.412;5.436;2024-01-30T12:07:08;3.53;;;2.50;;
73980;SDS011;62348;51.412;5.436;2024-01-30T12:09:34;3.78;;;2.15;;
73980;SDS011;62348;51.412;5.436;2024-01-30T12:11:59;5.07;;;2.60;;
73980;SDS011;62348;51.412;5.436;2024-01-30T12:14:25;5.20;;;2.22;;
73980;SDS011;62348;51.412;5.436;2024-01-30T12:16:51;5.28;;;2.45;;
73980;SDS011;62348;51.412;5.436;2024-01-30T12:19:23;2.67;;;2.10;;
73980;SDS011;62348;51.412;5.436;2024-01-30T12:21:58;2.53;;;2.25;;
73980;SDS011;62348;51.412;5.436;2024-01-30T12:24:27;3.63;;;2.70;;
73980;SDS011;62348;51.412;5.436;2024-01-30T12:26:58;5.28;;;3.00;;
73980;SDS011;62348;51.412;5.436;2024-01-30T12:29:25;4.57;;;2.80;;
73980;SDS011;62348;51.412;5.436;2024-01-30T12:31:54;4.47;;;3.03;;
73980;SDS011;62348;51.412;5.436;2024-01-30T12:34:20;1.70;;;1.55;;
73980;SDS011;62348;51.412;5.436;2024-01-30T12:36:46;5.10;;;2.13;;
73980;SDS011;62348;51.412;5.436;2024-01-30T12:39:14;2.83;;;2.10;;
73980;SDS011;62348;51.412;5.436;2024-01-30T12:41:40;4.20;;;2.33;;
73980;SDS011;62348;51.412;5.436;2024-01-30T12:44:05;4.68;;;2.15;;
73980;SDS011;62348;51.412;5.436;2024-01-30T12:46:31;3.08;;;1.50;;
73980;SDS011;62348;51.412;5.436;2024-01-30T12:48:56;6.15;;;1.55;;
73980;SDS011;62348;51.412;5.436;2024-01-30T12:51:22;2.35;;;1.27;;
73980;SDS011;62348;51.412;5.436;2024-01-30T12:53:47;1.90;;;0.95;;
73980;SDS011;62348;51.412;5.436;2024-01-30T12:56:13;1.58;;;0.88;;
73980;SDS011;62348;51.412;5.436;2024-01-30T12:58:40;2.58;;;1.00;;
73980;SDS011;62348;51.412;5.436;2024-01-30T13:01:06;0.75;;;0.68;;
73980;SDS011;62348;51.412;5.436;2024-01-30T13:03:32;1.65;;;0.60;;
73980;SDS011;62348;51.412;5.436;2024-01-30T13:05:57;4.22;;;1.05;;
73980;SDS011;62348;51.412;5.436;2024-01-30T13:08:23;0.60;;;0.60;;
73980;SDS011;62348;51.412;5.436;2024-01-30T13:10:49;0.40;;;0.40;;
73980;SDS011;62348;51.412;5.436;2024-01-30T13:13:14;0.70;;;0.70;;
73980;SDS011;62348;51.412;5.436;2024-01-30T13:15:40;0.73;;;0.40;;
73980;SDS011;62348;51.412;5.436;2024-01-30T13:18:06;0.63;;;0.50;;
73980;SDS011;62348;51.412;5.436;2024-01-30T13:20:31;0.60;;;0.60;;
73980;SDS011;62348;51.412;5.436;2024-01-30T13:22:56;0.40;;;0.40;;
73980;SDS011;62348;51.412;5.436;2024-01-30T13:25:22;0.40;;;0.40;;
73980;SDS011;62348;51.412;5.436;2024-01-30T13:27:47;3.53;;;0.43;;
73980;SDS011;62348;51.412;5.436;2024-01-30T13:30:13;1.08;;;0.40;;
73980;SDS011;62348;51.412;5.436;2024-01-30T13:32:39;0.82;;;0.50;;
73980;SDS011;62348;51.412;5.436;2024-01-30T13:35:06;0.50;;;0.50;;
73980;SDS011;62348;51.412;5.436;2024-01-30T13:37:32;0.32;;;0.32;;
73980;SDS011;62348;51.412;5.436;2024-01-30T13:39:57;1.50;;;0.50;;
73980;SDS011;62348;51.412;5.436;2024-01-30T13:42:23;4.25;;;0.80;;
73980;SDS011;62348;51.412;5.436;2024-01-30T13:44:48;0.50;;;0.50;;
73980;SDS011;62348;51.412;5.436;2024-01-30T13:47:14;0.50;;;0.50;;
73980;SDS011;62348;51.412;5.436;2024-01-30T13:49:39;0.50;;;0.50;;
73980;SDS011;62348;51.412;5.436;2024-01-30T13:52:05;4.18;;;0.88;;
73980;SDS011;62348;51.412;5.436;2024-01-30T13:54:30;0.47;;;0.47;;
73980;SDS011;62348;51.412;5.436;2024-01-30T13:56:56;0.98;;;0.82;;
73980;SDS011;62348;51.412;5.436;2024-01-30T13:59:22;0.52;;;0.45;;
73980;SDS011;62348;51.412;5.436;2024-01-30T14:01:50;1.80;;;0.52;;
73980;SDS011;62348;51.412;5.436;2024-01-30T14:04:16;1.42;;;0.90;;
73980;SDS011;62348;51.412;5.436;2024-01-30T14:06:41;0.70;;;0.70;;
73980;SDS011;62348;51.412;5.436;2024-01-30T14:09:06;2.65;;;0.50;;
73980;SDS011;62348;51.412;5.436;2024-01-30T14:11:32;1.02;;;0.70;;
73980;SDS011;62348;51.412;5.436;2024-01-30T14:13:57;0.90;;;0.60;;
73980;SDS011;62348;51.412;5.436;2024-01-30T14:16:23;3.95;;;0.45;;
73980;SDS011;62348;51.412;5.436;2024-01-30T14:18:49;1.85;;;0.70;;
73980;SDS011;62348;51.412;5.436;2024-01-30T14:21:15;1.95;;;0.85;;
73980;SDS011;62348;51.412;5.436;2024-01-30T14:23:40;0.80;;;0.80;;
73980;SDS011;62348;51.412;5.436;2024-01-30T14:26:06;6.70;;;0.80;;
73980;SDS011;62348;51.412;5.436;2024-01-30T14:28:31;5.50;;;0.80;;
73980;SDS011;62348;51.412;5.436;2024-01-30T14:30:57;0.85;;;0.50;;
73980;SDS011;62348;51.412;5.436;2024-01-30T14:33:22;0.73;;;0.45;;
73980;SDS011;62348;51.412;5.436;2024-01-30T14:35:47;2.10;;;0.50;;
73980;SDS011;62348;51.412;5.436;2024-01-30T14:38:13;4.97;;;1.55;;
73980;SDS011;62348;51.412;5.436;2024-01-30T14:40:38;0.63;;;0.60;;
73980;SDS011;62348;51.412;5.436;2024-01-30T14:43:04;0.75;;;0.50;;